sensor_id;sensor_type;location;lat;lon;timestamp;P1;durP1;ratioP1;P2;durP2;ratioP2
65831;SDS011;52593;42.648;23.332;2023-03-03T00:00:44;8.38;;;3.00;;
65831;SDS011;52593;42.648;23.332;2023-03-03T00:03:10;7.33;;;2.70;;
65831;SDS011;52593;42.648;23.332;2023-03-03T00:05:39;6.40;;;2.50;;
65831;SDS011;52593;42.648;23.332;2023-03-03T00:08:04;6.27;;;2.33;;
65831;SDS011;52593;42.648;23.332;2023-03-03T00:10:30;8.97;;;3.70;;
65831;SDS011;52593;42.648;23.332;2023-03-03T00:12:55;7.50;;;2.80;;
65831;SDS011;52593;42.648;23.332;2023-03-03T00:15:22;7.35;;;2.60;;
65831;SDS011;52593;42.648;23.332;2023-03-03T00:17:48;7.70;;;2.60;;
65831;SDS011;52593;42.648;23.332;2023-03-03T00:20:26;6.65;;;2.60;;
65831;SDS011;52593;42.648;23.332;2023-03-03T00:22:55;7.47;;;2.80;;
65831;SDS011;52593;42.648;23.332;2023-03-03T00:25:32;6.93;;;2.88;;
65831;SDS011;52593;42.648;23.332;2023-03-03T00:28:06;7.00;;;2.85;;
65831;SDS011;52593;42.648;23.332;2023-03-03T00:30:52;6.43;;;2.47;;
65831;SDS011;52593;42.648;23.332;2023-03-03T00:35:54;7.75;;;2.80;;
65831;SDS011;52593;42.648;23.332;2023-03-03T00:38:20;8.98;;;3.20;;
65831;SDS011;52593;42.648;23.332;2023-03-03T00:40:47;9.25;;;3.65;;
65831;SDS011;52593;42.648;23.332;2023-03-03T00:43:20;11.23;;;3.33;;
65831;SDS011;52593;42.648;23.332;2023-03-03T00:45:48;8.45;;;3.20;;
65831;SDS011;52593;42.648;23.332;2023-03-03T00:50:57;8.38;;;3.33;;
65831;SDS011;52593;42.648;23.332;2023-03-03T00:53:25;7.95;;;3.22;;
65831;SDS011;52593;42.648;23.332;2023-03-03T00:55:52;8.63;;;3.53;;
65831;SDS011;52593;42.648;23.332;2023-03-03T00:58:18;8.48;;;3.40;;
65831;SDS011;52593;42.648;23.332;2023-03-03T01:00:46;8.23;;;3.35;;
65831;SDS011;52593;42.648;23.332;2023-03-03T01:03:17;8.82;;;3.45;;
65831;SDS011;52593;42.648;23.332;2023-03-03T01:05:45;9.15;;;3.40;;
65831;SDS011;52593;42.648;23.332;2023-03-03T01:08:12;8.20;;;3.30;;
65831;SDS011;52593;42.648;23.332;2023-03-03T01:10:45;8.68;;;3.28;;
65831;SDS011;52593;42.648;23.332;2023-03-03T01:13:21;8.90;;;3.20;;
65831;SDS011;52593;42.648;23.332;2023-03-03T01:15:52;8.63;;;3.35;;
65831;SDS011;52593;42.648;23.332;2023-03-03T01:18:18;9.27;;;3.30;;
65831;SDS011;52593;42.648;23.332;2023-03-03T01:20:43;10.02;;;3.47;;
65831;SDS011;52593;42.648;23.332;2023-03-03T01:23:12;9.32;;;3.50;;
65831;SDS011;52593;42.648;23.332;2023-03-03T01:25:38;9.97;;;3.27;;
65831;SDS011;52593;42.648;23.332;2023-03-03T01:28:03;7.95;;;3.22;;
65831;SDS011;52593;42.648;23.332;2023-03-03T01:30:29;8.37;;;3.30;;
65831;SDS011;52593;42.648;23.332;2023-03-03T01:32:55;7.72;;;3.40;;
65831;SDS011;52593;42.648;23.332;2023-03-03T01:35:21;7.50;;;2.90;;
65831;SDS011;52593;42.648;23.332;2023-03-03T01:37:46;9.33;;;3.20;;
65831;SDS011;52593;42.648;23.332;2023-03-03T01:40:20;8.85;;;2.75;;
65831;SDS011;52593;42.648;23.332;2023-03-03T01:42:49;8.98;;;3.03;;
65831;SDS011;52593;42.648;23.332;2023-03-03T01:45:21;9.10;;;3.40;;
65831;SDS011;52593;42.648;23.332;2023-03-03T01:47:57;9.55;;;3.50;;
65831;SDS011;52593;42.648;23.332;2023-03-03T01:50:28;7.70;;;3.00;;
65831;SDS011;52593;42.648;23.332;2023-03-03T01:52:57;9.00;;;3.58;;
65831;SDS011;52593;42.648;23.332;2023-03-03T01:55:33;8.50;;;3.47;;
65831;SDS011;52593;42.648;23.332;2023-03-03T01:58:05;8.67;;;3.40;;
65831;SDS011;52593;42.648;23.332;2023-03-03T02:00:35;8.25;;;3.30;;
65831;SDS011;52593;42.648;23.332;2023-03-03T02:03:03;8.85;;;3.25;;
65831;SDS011;52593;42.648;23.332;2023-03-03T02:05:29;7.97;;;3.20;;
65831;SDS011;52593;42.648;23.332;2023-03-03T02:07:54;9.17;;;3.33;;
65831;SDS011;52593;42.648;23.332;2023-03-03T02:10:20;9.80;;;3.40;;
65831;SDS011;52593;42.648;23.332;2023-03-03T02:12:53;7.57;;;3.00;;
65831;SDS011;52593;42.648;23.332;2023-03-03T02:15:25;9.07;;;3.70;;
65831;SDS011;52593;42.648;23.332;2023-03-03T02:17:58;9.53;;;3.37;;
65831;SDS011;52593;42.648;23.332;2023-03-03T02:20:48;9.27;;;3.33;;
65831;SDS011;52593;42.648;23.332;2023-03-03T02:23:23;9.38;;;3.25;;
65831;SDS011;52593;42.648;23.332;2023-03-03T02:28:20;8.50;;;3.47;;
65831;SDS011;52593;42.648;23.332;2023-03-03T02:30:47;8.43;;;2.80;;
65831;SDS011;52593;42.648;23.332;2023-03-03T02:33:13;9.17;;;3.83;;
65831;SDS011;52593;42.648;23.332;2023-03-03T02:35:39;8.13;;;3.07;;
65831;SDS011;52593;42.648;23.332;2023-03-03T02:41:02;9.90;;;3.50;;
65831;SDS011;52593;42.648;23.332;2023-03-03T02:43:57;8.60;;;3.28;;
65831;SDS011;52593;42.648;23.332;2023-03-03T02:46:26;9.07;;;3.25;;
65831;SDS011;52593;42.648;23.332;2023-03-03T02:48:53;7.63;;;2.93;;
65831;SDS011;52593;42.648;23.332;2023-03-03T02:51:19;8.67;;;3.47;;
65831;SDS011;52593;42.648;23.332;2023-03-03T02:53:44;9.53;;;3.53;;
65831;SDS011;52593;42.648;23.332;2023-03-03T02:56:10;8.00;;;3.27;;
65831;SDS011;52593;42.648;23.332;2023-03-03T02:58:36;8.90;;;3.40;;
65831;SDS011;52593;42.648;23.332;2023-03-03T03:01:01;9.60;;;3.67;;
65831;SDS011;52593;42.648;23.332;2023-03-03T03:03:27;9.68;;;3.63;;
65831;SDS011;52593;42.648;23.332;2023-03-03T03:05:52;9.23;;;3.63;;
65831;SDS011;52593;42.648;23.332;2023-03-03T03:08:18;9.53;;;3.57;;
65831;SDS011;52593;42.648;23.332;2023-03-03T03:10:43;9.73;;;3.80;;
65831;SDS011;52593;42.648;23.332;2023-03-03T03:13:09;9.73;;;4.17;;
65831;SDS011;52593;42.648;23.332;2023-03-03T03:15:34;12.37;;;4.60;;
65831;SDS011;52593;42.648;23.332;2023-03-03T03:18:00;9.05;;;4.13;;
65831;SDS011;52593;42.648;23.332;2023-03-03T03:20:25;11.07;;;4.37;;
65831;SDS011;52593;42.648;23.332;2023-03-03T03:22:51;11.80;;;4.87;;
65831;SDS011;52593;42.648;23.332;2023-03-03T03:25:16;13.30;;;5.38;;
65831;SDS011;52593;42.648;23.332;2023-03-03T03:27:41;10.87;;;4.43;;
65831;SDS011;52593;42.648;23.332;2023-03-03T03:30:07;11.60;;;4.73;;
65831;SDS011;52593;42.648;23.332;2023-03-03T03:32:33;12.48;;;4.78;;
65831;SDS011;52593;42.648;23.332;2023-03-03T03:34:58;12.27;;;5.00;;
65831;SDS011;52593;42.648;23.332;2023-03-03T03:37:24;11.03;;;4.50;;
65831;SDS011;52593;42.648;23.332;2023-03-03T03:39:49;9.33;;;4.50;;
65831;SDS011;52593;42.648;23.332;2023-03-03T03:42:15;12.75;;;4.53;;
65831;SDS011;52593;42.648;23.332;2023-03-03T03:44:40;10.33;;;4.50;;
65831;SDS011;52593;42.648;23.332;2023-03-03T03:47:05;9.67;;;4.17;;
65831;SDS011;52593;42.648;23.332;2023-03-03T03:49:31;11.70;;;4.63;;
65831;SDS011;52593;42.648;23.332;2023-03-03T03:51:56;11.05;;;4.70;;
65831;SDS011;52593;42.648;23.332;2023-03-03T03:54:22;10.77;;;4.27;;
65831;SDS011;52593;42.648;23.332;2023-03-03T03:56:47;11.33;;;4.20;;
65831;SDS011;52593;42.648;23.332;2023-03-03T03:59:12;11.70;;;4.63;;
65831;SDS011;52593;42.648;23.332;2023-03-03T04:01:38;11.10;;;4.83;;
65831;SDS011;52593;42.648;23.332;2023-03-03T04:04:03;13.38;;;5.30;;
65831;SDS011;52593;42.648;23.332;2023-03-03T04:06:29;11.60;;;4.47;;
65831;SDS011;52593;42.648;23.332;2023-03-03T04:08:55;13.43;;;5.13;;
65831;SDS011;52593;42.648;23.332;2023-03-03T04:11:21;11.35;;;4.80;;
65831;SDS011;52593;42.648;23.332;2023-03-03T04:13:47;13.67;;;5.77;;
65831;SDS011;52593;42.648;23.332;2023-03-03T04:16:12;12.77;;;4.93;;
65831;SDS011;52593;42.648;23.332;2023-03-03T04:18:37;12.47;;;4.97;;
65831;SDS011;52593;42.648;23.332;2023-03-03T04:21:03;13.68;;;5.13;;
65831;SDS011;52593;42.648;23.332;2023-03-03T04:23:28;13.17;;;5.07;;
65831;SDS011;52593;42.648;23.332;2023-03-03T04:25:54;13.50;;;5.33;;
65831;SDS011;52593;42.648;23.332;2023-03-03T04:28:19;14.27;;;5.40;;
65831;SDS011;52593;42.648;23.332;2023-03-03T04:30:46;13.07;;;4.60;;
65831;SDS011;52593;42.648;23.332;2023-03-03T04:33:11;13.77;;;5.30;;
65831;SDS011;52593;42.648;23.332;2023-03-03T04:35:37;12.80;;;5.33;;
65831;SDS011;52593;42.648;23.332;2023-03-03T04:38:02;13.87;;;5.60;;
65831;SDS011;52593;42.648;23.332;2023-03-03T04:40:29;14.15;;;5.53;;
65831;SDS011;52593;42.648;23.332;2023-03-03T04:42:54;14.10;;;5.80;;
65831;SDS011;52593;42.648;23.332;2023-03-03T04:45:20;14.70;;;5.33;;
65831;SDS011;52593;42.648;23.332;2023-03-03T04:47:45;14.38;;;5.15;;
65831;SDS011;52593;42.648;23.332;2023-03-03T04:50:11;13.80;;;4.73;;
65831;SDS011;52593;42.648;23.332;2023-03-03T04:52:36;11.53;;;4.83;;
65831;SDS011;52593;42.648;23.332;2023-03-03T04:55:02;12.73;;;5.25;;
65831;SDS011;52593;42.648;23.332;2023-03-03T04:57:28;10.80;;;4.90;;
65831;SDS011;52593;42.648;23.332;2023-03-03T04:59:53;12.07;;;5.00;;
65831;SDS011;52593;42.648;23.332;2023-03-03T05:02:19;13.57;;;5.17;;
65831;SDS011;52593;42.648;23.332;2023-03-03T05:04:44;11.77;;;4.97;;
65831;SDS011;52593;42.648;23.332;2023-03-03T05:07:10;15.05;;;5.80;;
65831;SDS011;52593;42.648;23.332;2023-03-03T05:09:35;13.87;;;5.30;;
65831;SDS011;52593;42.648;23.332;2023-03-03T05:12:01;13.50;;;5.40;;
65831;SDS011;52593;42.648;23.332;2023-03-03T05:14:27;13.27;;;5.40;;
65831;SDS011;52593;42.648;23.332;2023-03-03T05:16:53;14.87;;;5.83;;
65831;SDS011;52593;42.648;23.332;2023-03-03T05:19:18;14.80;;;6.20;;
65831;SDS011;52593;42.648;23.332;2023-03-03T05:21:43;13.00;;;5.70;;
65831;SDS011;52593;42.648;23.332;2023-03-03T05:24:09;14.23;;;5.97;;
65831;SDS011;52593;42.648;23.332;2023-03-03T05:26:36;14.88;;;5.88;;
65831;SDS011;52593;42.648;23.332;2023-03-03T05:29:02;15.02;;;6.07;;
65831;SDS011;52593;42.648;23.332;2023-03-03T05:31:28;14.70;;;6.10;;
65831;SDS011;52593;42.648;23.332;2023-03-03T05:33:53;18.10;;;7.30;;
65831;SDS011;52593;42.648;23.332;2023-03-03T05:36:19;18.73;;;7.50;;
65831;SDS011;52593;42.648;23.332;2023-03-03T05:38:45;15.93;;;6.70;;
65831;SDS011;52593;42.648;23.332;2023-03-03T05:41:10;20.90;;;7.90;;
65831;SDS011;52593;42.648;23.332;2023-03-03T05:43:35;34.50;;;13.97;;
65831;SDS011;52593;42.648;23.332;2023-03-03T05:46:01;38.20;;;14.30;;
65831;SDS011;52593;42.648;23.332;2023-03-03T05:48:27;20.90;;;8.40;;
65831;SDS011;52593;42.648;23.332;2023-03-03T05:50:52;17.40;;;6.78;;
65831;SDS011;52593;42.648;23.332;2023-03-03T05:53:18;19.33;;;7.00;;
65831;SDS011;52593;42.648;23.332;2023-03-03T05:55:43;15.53;;;6.87;;
65831;SDS011;52593;42.648;23.332;2023-03-03T05:58:09;14.60;;;6.07;;
65831;SDS011;52593;42.648;23.332;2023-03-03T06:00:34;18.08;;;6.72;;
65831;SDS011;52593;42.648;23.332;2023-03-03T06:03:00;18.27;;;6.57;;
65831;SDS011;52593;42.648;23.332;2023-03-03T06:05:25;27.33;;;10.33;;
65831;SDS011;52593;42.648;23.332;2023-03-03T06:07:51;25.10;;;9.07;;
65831;SDS011;52593;42.648;23.332;2023-03-03T06:10:16;17.73;;;7.33;;
65831;SDS011;52593;42.648;23.332;2023-03-03T06:12:42;20.27;;;7.67;;
65831;SDS011;52593;42.648;23.332;2023-03-03T06:15:07;17.93;;;6.87;;
65831;SDS011;52593;42.648;23.332;2023-03-03T06:17:34;17.42;;;6.95;;
65831;SDS011;52593;42.648;23.332;2023-03-03T06:19:59;18.35;;;7.25;;
65831;SDS011;52593;42.648;23.332;2023-03-03T06:22:25;23.17;;;8.90;;
65831;SDS011;52593;42.648;23.332;2023-03-03T06:24:50;19.13;;;8.10;;
65831;SDS011;52593;42.648;23.332;2023-03-03T06:27:16;21.70;;;8.60;;
65831;SDS011;52593;42.648;23.332;2023-03-03T06:29:42;18.33;;;7.10;;
65831;SDS011;52593;42.648;23.332;2023-03-03T06:32:07;17.73;;;6.75;;
65831;SDS011;52593;42.648;23.332;2023-03-03T06:34:33;17.30;;;6.47;;
65831;SDS011;52593;42.648;23.332;2023-03-03T06:36:58;15.40;;;6.40;;
65831;SDS011;52593;42.648;23.332;2023-03-03T06:39:24;15.53;;;6.53;;
65831;SDS011;52593;42.648;23.332;2023-03-03T06:41:49;15.10;;;6.18;;
65831;SDS011;52593;42.648;23.332;2023-03-03T06:44:14;17.10;;;6.60;;
65831;SDS011;52593;42.648;23.332;2023-03-03T06:46:40;15.97;;;6.53;;
65831;SDS011;52593;42.648;23.332;2023-03-03T06:49:05;16.30;;;6.07;;
65831;SDS011;52593;42.648;23.332;2023-03-03T06:54:09;16.17;;;6.68;;
65831;SDS011;52593;42.648;23.332;2023-03-03T06:56:37;16.38;;;6.22;;
65831;SDS011;52593;42.648;23.332;2023-03-03T06:59:16;13.18;;;5.53;;
65831;SDS011;52593;42.648;23.332;2023-03-03T07:01:44;13.97;;;5.50;;
65831;SDS011;52593;42.648;23.332;2023-03-03T07:06:49;14.48;;;6.10;;
65831;SDS011;52593;42.648;23.332;2023-03-03T07:09:26;13.47;;;5.50;;
65831;SDS011;52593;42.648;23.332;2023-03-03T07:11:59;12.97;;;5.17;;
65831;SDS011;52593;42.648;23.332;2023-03-03T07:14:27;12.63;;;5.55;;
65831;SDS011;52593;42.648;23.332;2023-03-03T07:16:57;13.75;;;5.25;;
65831;SDS011;52593;42.648;23.332;2023-03-03T07:19:30;14.15;;;5.35;;
65831;SDS011;52593;42.648;23.332;2023-03-03T07:21:59;14.38;;;5.72;;
65831;SDS011;52593;42.648;23.332;2023-03-03T07:24:35;13.43;;;5.60;;
65831;SDS011;52593;42.648;23.332;2023-03-03T07:29:50;14.05;;;5.60;;
65831;SDS011;52593;42.648;23.332;2023-03-03T07:32:21;13.95;;;5.88;;
65831;SDS011;52593;42.648;23.332;2023-03-03T07:34:51;14.03;;;6.20;;
65831;SDS011;52593;42.648;23.332;2023-03-03T07:39:53;15.82;;;6.90;;
65831;SDS011;52593;42.648;23.332;2023-03-03T07:42:23;16.33;;;6.20;;
65831;SDS011;52593;42.648;23.332;2023-03-03T07:44:57;16.27;;;6.20;;
65831;SDS011;52593;42.648;23.332;2023-03-03T07:47:24;14.75;;;6.38;;
65831;SDS011;52593;42.648;23.332;2023-03-03T07:49:51;16.02;;;6.15;;
65831;SDS011;52593;42.648;23.332;2023-03-03T07:52:26;15.02;;;5.78;;
65831;SDS011;52593;42.648;23.332;2023-03-03T07:54:52;16.53;;;5.90;;
65831;SDS011;52593;42.648;23.332;2023-03-03T07:57:21;15.02;;;5.57;;
65831;SDS011;52593;42.648;23.332;2023-03-03T07:59:59;14.70;;;6.30;;
65831;SDS011;52593;42.648;23.332;2023-03-03T08:02:43;19.92;;;8.38;;
65831;SDS011;52593;42.648;23.332;2023-03-03T08:11:01;12.80;;;5.63;;
65831;SDS011;52593;42.648;23.332;2023-03-03T08:18:28;11.00;;;5.05;;
65831;SDS011;52593;42.648;23.332;2023-03-03T08:21:02;13.00;;;5.13;;
65831;SDS011;52593;42.648;23.332;2023-03-03T08:23:46;13.10;;;5.15;;
65831;SDS011;52593;42.648;23.332;2023-03-03T08:26:15;16.25;;;6.60;;
65831;SDS011;52593;42.648;23.332;2023-03-03T08:28:42;15.32;;;5.78;;
65831;SDS011;52593;42.648;23.332;2023-03-03T08:31:08;14.00;;;6.10;;
65831;SDS011;52593;42.648;23.332;2023-03-03T08:33:34;15.15;;;6.15;;
65831;SDS011;52593;42.648;23.332;2023-03-03T08:35:59;19.57;;;7.90;;
65831;SDS011;52593;42.648;23.332;2023-03-03T08:38:25;20.60;;;8.47;;
65831;SDS011;52593;42.648;23.332;2023-03-03T08:40:50;20.70;;;8.88;;
65831;SDS011;52593;42.648;23.332;2023-03-03T08:43:16;23.13;;;10.00;;
65831;SDS011;52593;42.648;23.332;2023-03-03T08:45:45;17.95;;;8.25;;
65831;SDS011;52593;42.648;23.332;2023-03-03T08:48:12;16.42;;;6.95;;
65831;SDS011;52593;42.648;23.332;2023-03-03T08:50:38;18.27;;;7.73;;
65831;SDS011;52593;42.648;23.332;2023-03-03T08:53:04;18.73;;;8.57;;
65831;SDS011;52593;42.648;23.332;2023-03-03T08:55:30;18.38;;;7.65;;
65831;SDS011;52593;42.648;23.332;2023-03-03T08:57:56;16.67;;;7.50;;
65831;SDS011;52593;42.648;23.332;2023-03-03T09:00:21;16.63;;;6.93;;
65831;SDS011;52593;42.648;23.332;2023-03-03T09:02:47;16.08;;;6.28;;
65831;SDS011;52593;42.648;23.332;2023-03-03T09:05:14;15.57;;;6.55;;
65831;SDS011;52593;42.648;23.332;2023-03-03T09:07:41;13.80;;;6.00;;
65831;SDS011;52593;42.648;23.332;2023-03-03T09:10:10;14.35;;;5.90;;
65831;SDS011;52593;42.648;23.332;2023-03-03T09:12:38;25.50;;;10.02;;
65831;SDS011;52593;42.648;23.332;2023-03-03T09:15:12;16.92;;;7.03;;
65831;SDS011;52593;42.648;23.332;2023-03-03T09:17:44;16.63;;;6.90;;
65831;SDS011;52593;42.648;23.332;2023-03-03T09:20:32;15.27;;;6.83;;
65831;SDS011;52593;42.648;23.332;2023-03-03T09:28:50;19.33;;;7.07;;
65831;SDS011;52593;42.648;23.332;2023-03-03T09:31:41;20.35;;;8.05;;
65831;SDS011;52593;42.648;23.332;2023-03-03T09:36:52;14.93;;;6.25;;
65831;SDS011;52593;42.648;23.332;2023-03-03T09:39:23;16.48;;;7.10;;
65831;SDS011;52593;42.648;23.332;2023-03-03T09:47:29;15.80;;;7.20;;
65831;SDS011;52593;42.648;23.332;2023-03-03T09:55:30;12.80;;;5.88;;
65831;SDS011;52593;42.648;23.332;2023-03-03T10:12:12;14.45;;;6.85;;
65831;SDS011;52593;42.648;23.332;2023-03-03T10:20:09;15.55;;;6.63;;
65831;SDS011;52593;42.648;23.332;2023-03-03T10:25:44;14.90;;;7.03;;
65831;SDS011;52593;42.648;23.332;2023-03-03T10:28:34;16.67;;;6.90;;
65831;SDS011;52593;42.648;23.332;2023-03-03T10:31:18;16.35;;;6.68;;
65831;SDS011;52593;42.648;23.332;2023-03-03T10:34:18;13.63;;;6.30;;
65831;SDS011;52593;42.648;23.332;2023-03-03T10:48:17;14.40;;;6.57;;
65831;SDS011;52593;42.648;23.332;2023-03-03T10:53:34;15.48;;;7.03;;
65831;SDS011;52593;42.648;23.332;2023-03-03T10:58:59;14.83;;;6.53;;
65831;SDS011;52593;42.648;23.332;2023-03-03T11:04:18;19.52;;;7.18;;
65831;SDS011;52593;42.648;23.332;2023-03-03T11:10:00;16.45;;;7.35;;
65831;SDS011;52593;42.648;23.332;2023-03-03T11:26:07;17.70;;;7.97;;
65831;SDS011;52593;42.648;23.332;2023-03-03T11:28:55;20.27;;;9.02;;
65831;SDS011;52593;42.648;23.332;2023-03-03T11:31:37;25.90;;;10.18;;
65831;SDS011;52593;42.648;23.332;2023-03-03T11:34:13;22.50;;;10.00;;
65831;SDS011;52593;42.648;23.332;2023-03-03T11:36:44;21.23;;;9.68;;
65831;SDS011;52593;42.648;23.332;2023-03-03T11:39:20;19.50;;;8.83;;
65831;SDS011;52593;42.648;23.332;2023-03-03T11:50:15;23.48;;;9.43;;
65831;SDS011;52593;42.648;23.332;2023-03-03T11:55:35;21.00;;;8.93;;
65831;SDS011;52593;42.648;23.332;2023-03-03T12:00:53;21.00;;;9.88;;
65831;SDS011;52593;42.648;23.332;2023-03-03T12:03:44;23.67;;;10.73;;
65831;SDS011;52593;42.648;23.332;2023-03-03T12:09:13;22.48;;;10.55;;
65831;SDS011;52593;42.648;23.332;2023-03-03T12:11:47;24.52;;;10.60;;
65831;SDS011;52593;42.648;23.332;2023-03-03T12:17:13;28.10;;;12.80;;
65831;SDS011;52593;42.648;23.332;2023-03-03T12:26:01;24.40;;;10.50;;
65831;SDS011;52593;42.648;23.332;2023-03-03T12:28:34;25.17;;;11.05;;
65831;SDS011;52593;42.648;23.332;2023-03-03T12:34:18;24.10;;;11.33;;
65831;SDS011;52593;42.648;23.332;2023-03-03T12:45:10;25.50;;;11.77;;
65831;SDS011;52593;42.648;23.332;2023-03-03T12:47:50;26.33;;;11.67;;
65831;SDS011;52593;42.648;23.332;2023-03-03T12:56:34;24.13;;;11.25;;
65831;SDS011;52593;42.648;23.332;2023-03-03T12:59:02;23.67;;;10.65;;
65831;SDS011;52593;42.648;23.332;2023-03-03T13:04:40;23.52;;;11.05;;
65831;SDS011;52593;42.648;23.332;2023-03-03T13:07:25;22.08;;;9.38;;
65831;SDS011;52593;42.648;23.332;2023-03-03T13:12:55;22.77;;;9.82;;
65831;SDS011;52593;42.648;23.332;2023-03-03T13:15:33;26.00;;;10.67;;
65831;SDS011;52593;42.648;23.332;2023-03-03T13:21:04;20.70;;;9.40;;
65831;SDS011;52593;42.648;23.332;2023-03-03T13:24:03;18.80;;;9.25;;
65831;SDS011;52593;42.648;23.332;2023-03-03T13:26:30;15.35;;;7.50;;
65831;SDS011;52593;42.648;23.332;2023-03-03T13:29:03;17.43;;;7.43;;
65831;SDS011;52593;42.648;23.332;2023-03-03T13:31:40;15.55;;;6.45;;
65831;SDS011;52593;42.648;23.332;2023-03-03T13:34:19;14.48;;;6.57;;
65831;SDS011;52593;42.648;23.332;2023-03-03T13:36:48;14.18;;;6.47;;
65831;SDS011;52593;42.648;23.332;2023-03-03T13:39:37;16.20;;;7.53;;
65831;SDS011;52593;42.648;23.332;2023-03-03T13:44:44;14.68;;;6.90;;
65831;SDS011;52593;42.648;23.332;2023-03-03T13:52:58;14.50;;;6.68;;
65831;SDS011;52593;42.648;23.332;2023-03-03T13:55:43;14.07;;;6.20;;
65831;SDS011;52593;42.648;23.332;2023-03-03T14:03:39;15.13;;;6.95;;
65831;SDS011;52593;42.648;23.332;2023-03-03T14:06:29;17.13;;;7.40;;
65831;SDS011;52593;42.648;23.332;2023-03-03T14:11:51;15.77;;;7.45;;
65831;SDS011;52593;42.648;23.332;2023-03-03T14:14:54;14.23;;;6.88;;
65831;SDS011;52593;42.648;23.332;2023-03-03T14:20:37;16.40;;;7.70;;
65831;SDS011;52593;42.648;23.332;2023-03-03T14:25:58;21.67;;;9.50;;
65831;SDS011;52593;42.648;23.332;2023-03-03T14:28:42;17.98;;;8.38;;
65831;SDS011;52593;42.648;23.332;2023-03-03T14:31:38;17.02;;;8.52;;
65831;SDS011;52593;42.648;23.332;2023-03-03T14:36:38;19.77;;;8.70;;
65831;SDS011;52593;42.648;23.332;2023-03-03T14:39:26;22.52;;;10.65;;
65831;SDS011;52593;42.648;23.332;2023-03-03T14:41:57;20.48;;;8.90;;
65831;SDS011;52593;42.648;23.332;2023-03-03T14:47:00;19.83;;;7.95;;
65831;SDS011;52593;42.648;23.332;2023-03-03T14:49:35;17.73;;;8.40;;
65831;SDS011;52593;42.648;23.332;2023-03-03T14:52:10;20.55;;;9.02;;
65831;SDS011;52593;42.648;23.332;2023-03-03T14:54:36;20.17;;;9.07;;
65831;SDS011;52593;42.648;23.332;2023-03-03T14:57:36;19.00;;;9.15;;
65831;SDS011;52593;42.648;23.332;2023-03-03T15:05:17;20.88;;;10.10;;
65831;SDS011;52593;42.648;23.332;2023-03-03T15:07:54;21.95;;;9.95;;
65831;SDS011;52593;42.648;23.332;2023-03-03T15:10:28;20.25;;;9.20;;
65831;SDS011;52593;42.648;23.332;2023-03-03T15:12:56;20.03;;;9.47;;
65831;SDS011;52593;42.648;23.332;2023-03-03T15:15:23;19.75;;;9.40;;
65831;SDS011;52593;42.648;23.332;2023-03-03T15:22:47;18.17;;;8.25;;
65831;SDS011;52593;42.648;23.332;2023-03-03T15:35:54;17.08;;;8.25;;
65831;SDS011;52593;42.648;23.332;2023-03-03T15:38:36;23.70;;;9.38;;
65831;SDS011;52593;42.648;23.332;2023-03-03T15:44:04;22.97;;;11.63;;
65831;SDS011;52593;42.648;23.332;2023-03-03T15:49:43;27.90;;;13.35;;
65831;SDS011;52593;42.648;23.332;2023-03-03T16:03:35;26.40;;;11.88;;
65831;SDS011;52593;42.648;23.332;2023-03-03T16:06:05;25.77;;;11.75;;
65831;SDS011;52593;42.648;23.332;2023-03-03T16:08:41;29.92;;;12.68;;
65831;SDS011;52593;42.648;23.332;2023-03-03T16:11:28;24.20;;;11.27;;
65831;SDS011;52593;42.648;23.332;2023-03-03T16:19:49;27.77;;;11.55;;
65831;SDS011;52593;42.648;23.332;2023-03-03T16:22:48;25.55;;;11.43;;
65831;SDS011;52593;42.648;23.332;2023-03-03T16:28:20;19.73;;;9.82;;
65831;SDS011;52593;42.648;23.332;2023-03-03T16:42:27;20.63;;;9.77;;
65831;SDS011;52593;42.648;23.332;2023-03-03T16:56:19;22.02;;;9.50;;
65831;SDS011;52593;42.648;23.332;2023-03-03T16:59:10;17.98;;;9.05;;
65831;SDS011;52593;42.648;23.332;2023-03-03T17:09:54;22.92;;;10.15;;
65831;SDS011;52593;42.648;23.332;2023-03-03T17:20:18;26.20;;;11.88;;
65831;SDS011;52593;42.648;23.332;2023-03-03T17:22:57;23.93;;;11.27;;
65831;SDS011;52593;42.648;23.332;2023-03-03T17:25:58;22.73;;;10.55;;
65831;SDS011;52593;42.648;23.332;2023-03-03T17:34:37;21.35;;;9.88;;
65831;SDS011;52593;42.648;23.332;2023-03-03T17:42:55;31.43;;;13.80;;
65831;SDS011;52593;42.648;23.332;2023-03-03T17:45:29;29.70;;;13.77;;
65831;SDS011;52593;42.648;23.332;2023-03-03T17:48:07;30.92;;;14.55;;
65831;SDS011;52593;42.648;23.332;2023-03-03T17:56:23;20.77;;;9.47;;
65831;SDS011;52593;42.648;23.332;2023-03-03T18:13:01;16.13;;;7.50;;
65831;SDS011;52593;42.648;23.332;2023-03-03T18:21:26;15.75;;;7.97;;
65831;SDS011;52593;42.648;23.332;2023-03-03T18:23:54;14.20;;;7.50;;
65831;SDS011;52593;42.648;23.332;2023-03-03T18:27:12;17.40;;;8.37;;
65831;SDS011;52593;42.648;23.332;2023-03-03T18:40:50;21.53;;;10.83;;
65831;SDS011;52593;42.648;23.332;2023-03-03T18:46:08;19.70;;;9.95;;
65831;SDS011;52593;42.648;23.332;2023-03-03T18:49:04;29.27;;;13.57;;
65831;SDS011;52593;42.648;23.332;2023-03-03T18:59:08;27.00;;;12.10;;
65831;SDS011;52593;42.648;23.332;2023-03-03T19:01:43;24.15;;;11.13;;
65831;SDS011;52593;42.648;23.332;2023-03-03T19:04:19;22.77;;;10.70;;
65831;SDS011;52593;42.648;23.332;2023-03-03T19:09:16;25.23;;;11.50;;
65831;SDS011;52593;42.648;23.332;2023-03-03T19:11:51;23.75;;;11.23;;
65831;SDS011;52593;42.648;23.332;2023-03-03T19:16:53;30.17;;;13.73;;
65831;SDS011;52593;42.648;23.332;2023-03-03T19:19:21;27.48;;;12.35;;
65831;SDS011;52593;42.648;23.332;2023-03-03T19:22:13;22.40;;;10.60;;
65831;SDS011;52593;42.648;23.332;2023-03-03T19:28:01;17.17;;;8.02;;
65831;SDS011;52593;42.648;23.332;2023-03-03T19:30:44;17.00;;;7.90;;
65831;SDS011;52593;42.648;23.332;2023-03-03T19:41:21;15.88;;;7.90;;
65831;SDS011;52593;42.648;23.332;2023-03-03T19:46:37;14.43;;;6.80;;
65831;SDS011;52593;42.648;23.332;2023-03-03T19:49:36;16.27;;;7.38;;
65831;SDS011;52593;42.648;23.332;2023-03-03T20:05:50;18.55;;;9.05;;
65831;SDS011;52593;42.648;23.332;2023-03-03T20:17:11;22.85;;;10.27;;
65831;SDS011;52593;42.648;23.332;2023-03-03T20:23:21;22.45;;;9.30;;
65831;SDS011;52593;42.648;23.332;2023-03-03T20:25:59;21.73;;;10.13;;
65831;SDS011;52593;42.648;23.332;2023-03-03T20:40:02;20.45;;;9.25;;
65831;SDS011;52593;42.648;23.332;2023-03-03T20:45:29;19.85;;;9.50;;
65831;SDS011;52593;42.648;23.332;2023-03-03T20:53:37;24.88;;;10.93;;
65831;SDS011;52593;42.648;23.332;2023-03-03T20:56:23;23.27;;;11.33;;
65831;SDS011;52593;42.648;23.332;2023-03-03T20:59:35;25.45;;;11.00;;
65831;SDS011;52593;42.648;23.332;2023-03-03T21:04:38;23.73;;;11.40;;
65831;SDS011;52593;42.648;23.332;2023-03-03T21:07:03;21.40;;;9.77;;
65831;SDS011;52593;42.648;23.332;2023-03-03T21:09:30;17.02;;;7.47;;
65831;SDS011;52593;42.648;23.332;2023-03-03T21:12:03;15.68;;;6.85;;
65831;SDS011;52593;42.648;23.332;2023-03-03T21:14:35;15.52;;;7.28;;
65831;SDS011;52593;42.648;23.332;2023-03-03T21:17:10;11.93;;;5.43;;
65831;SDS011;52593;42.648;23.332;2023-03-03T21:19:53;13.60;;;5.80;;
65831;SDS011;52593;42.648;23.332;2023-03-03T21:22:19;16.60;;;7.63;;
65831;SDS011;52593;42.648;23.332;2023-03-03T21:24:48;17.03;;;7.43;;
65831;SDS011;52593;42.648;23.332;2023-03-03T21:27:24;14.05;;;6.53;;
65831;SDS011;52593;42.648;23.332;2023-03-03T21:30:00;16.27;;;6.93;;